Elizabethtown, KY

9:52 AM EST on February 23, 2017 (GMT -0500)
Woodland Heights | | Change Station

Elev 810 ft 37.71 °N, 85.88 °W | Updated 20 seconds ago

Overcast
Overcast
60.6 °F
Feels Like 60.6 °F
N
2.0
Wind Variable Wind from SSW
Gusts 2.5 mph

Today
High -- | Low -- °F
--% Chance of Precip.
Yesterday
High -- | Low -- °F
Precip. -- in
Pressure 29.83 in
Visibility 10.0 miles
Clouds Overcast 5000 ft
Dew Point 59 °F
Humidity 94%
Rainfall 0.00 in
Snow Depth Not available.
7:22 AM 6:31 PM
Waning Crescent, 10% visible
METAR KFTK 231358Z AUTO 19009KT 10SM OVC050 15/15 A2983 RMK AO2 SLP102 T01510146
Pressure 29.83 in
Visibility 10.0 miles
Clouds Overcast 5000 ft
Dew Point 59 °F
Humidity 94%
Rainfall 0.00 in
Snow Depth Not available.
7:22 AM 6:31 PM
Waning Crescent, 10% visible
METAR KFTK 231358Z AUTO 19009KT 10SM OVC050 15/15 A2983 RMK AO2 SLP102 T01510146

Get Your Daily Forecast Email!

Thanks for signing up!

Be on the lookout for a verification email in your inbox.

You'll start receiving the daily forecast at 8 AM.

×

10-Day Weather Forecast

Almanac

Astronomy

Feb. 23, 2017 Rise Set
Actual Time
Civil Twilight
Nautical Twilight
Astronomical Twilight
Moon
Length of Visible Light
Length of Day
Tomorrow will be .
, % of the Moon is Illuminated

Today's Extremes

State Highs State Lows

Community

WunderPhotos

Upload Photos

1,962,540 photos uploaded!

WunderBlog® & News

Nearby

Air Quality

  Air Quality AQ Index Pollutant
Not available.

Snow Depth

Station Depth Elevation

Earthquake Activity

City Distance Mag. Time & Date
Minimum magnitude displayed is 2.5.

Coastal Water Temperatures

Place Temperature

Stations

Nearby Weather Stations

Station Location Temp. Windchill Dew Point Humidity Wind Precip. Elev Updated Type
                   

Watches & Warnings

There are currently no watches in effect.